Time,TemperatureF,DewpointF,PressureIn,WindDirection,WindDirectionDegrees,WindSpeedMPH,WindSpeedGustMPH,Humidity,HourlyPrecipIn,Conditions,Clouds,dailyrainin,SoftwareType,DateUTC
2013-01-18 00:00:00,16.3,12.8,30.13,NNE,18,0.2,1.1,86,0.00,,,0.00,WeatherDisplay:10.37,2013-01-18 05:00:00,
2013-01-18 00:02:00,16.2,12.7,30.13,North,355,1.3,3.5,86,0.00,,,0.00,WeatherDisplay:10.37,2013-01-18 05:02:00,
2013-01-18 00:03:00,16.2,12.7,30.13,North,355,0.7,2.3,86,0.00,,,0.00,WeatherDisplay:10.37,2013-01-18 05:03:00,
2013-01-18 00:08:00,16.2,12.7,30.13,NE,49,1.2,1.2,86,0.00,,,0.00,WeatherDisplay:10.37,2013-01-18 05:08:00,
2013-01-18 00:13:00,16.2,12.7,30.14,NNE,22,0.0,0.0,86,0.00,,,0.00,WeatherDisplay:10.37,2013-01-18 05:13:00,
2013-01-18 00:18:00,16.2,12.7,30.14,NNE,17,0.9,3.5,86,0.00,,,0.00,WeatherDisplay:10.37,2013-01-18 05:18:00,
2013-01-18 00:23:00,16.2,12.7,30.14,North,360,0.1,1.0,86,0.00,,,0.00,WeatherDisplay:10.37,2013-01-18 05:23:00,
2013-01-18 00:28:00,16.2,12.7,30.14,North,355,0.0,1.1,86,0.00,,,0.00,WeatherDisplay:10.37,2013-01-18 05:28:00,
2013-01-18 00:33:00,16.2,12.7,30.14,NNE,31,0.0,1.1,86,0.00,,,0.00,WeatherDisplay:10.37,2013-01-18 05:33:00,
2013-01-18 00:38:00,16.1,12.7,30.15,NNE,17,0.0,1.1,86,0.00,,,0.00,WeatherDisplay:10.37,2013-01-18 05:38:00,
2013-01-18 00:43:00,16.2,12.7,30.15,NNE,15,0.0,0.0,86,0.00,,,0.00,WeatherDisplay:10.37,2013-01-18 05:43:00,
2013-01-18 00:48:00,16.2,13.0,30.15,NNE,15,0.0,0.0,87,0.00,,,0.00,WeatherDisplay:10.37,2013-01-18 05:48:00,
2013-01-18 00:53:00,16.4,13.2,30.15,NNE,15,0.0,0.0,87,0.00,,,0.00,WeatherDisplay:10.37,2013-01-18 05:53:00,
2013-01-18 00:58:00,16.4,12.9,30.16,NNE,15,0.0,0.0,86,0.00,,,0.00,WeatherDisplay:10.37,2013-01-18 05:58:00,
2013-01-18 01:03:00,16.3,12.8,30.15,NE,49,0.0,0.0,86,0.00,CLR,,0.00,WeatherDisplay:10.37,2013-01-18 06:03:00,
2013-01-18 01:08:00,16.3,12.8,30.15,NNW,340,0.0,0.0,86,0.00,CLR,,0.00,WeatherDisplay:10.37,2013-01-18 06:08:00,
2013-01-18 01:13:00,16.3,12.8,30.16,North,355,0.0,0.0,86,0.00,CLR,,0.00,WeatherDisplay:10.37,2013-01-18 06:13:00,
2013-01-18 01:18:00,16.3,12.8,30.16,NNE,16,0.0,2.3,86,0.00,CLR,,0.00,WeatherDisplay:10.37,2013-01-18 06:18:00,
2013-01-18 01:23:00,16.2,12.7,30.16,North,360,0.0,0.0,86,0.00,CLR,,0.00,WeatherDisplay:10.37,2013-01-18 06:23:00,
2013-01-18 01:28:00,16.1,12.7,30.16,NNW,346,0.9,2.3,86,0.00,CLR,,0.00,WeatherDisplay:10.37,2013-01-18 06:28:00,
2013-01-18 01:33:00,16.1,12.7,30.17,NNW,337,0.0,0.0,86,0.00,CLR,,0.00,WeatherDisplay:10.37,2013-01-18 06:33:00,
2013-01-18 01:38:00,16.1,12.7,30.17,NNW,337,0.0,0.0,86,0.00,CLR,,0.00,WeatherDisplay:10.37,2013-01-18 06:38:00,
2013-01-18 01:43:00,16.2,13.0,30.17,NNW,337,0.0,0.0,87,0.00,CLR,,0.00,WeatherDisplay:10.37,2013-01-18 06:43:00,
2013-01-18 01:48:00,16.4,13.2,30.18,NNW,338,0.0,0.0,87,0.00,CLR,,0.00,WeatherDisplay:10.37,2013-01-18 06:48:00,
2013-01-18 01:53:00,16.4,12.9,30.18,NNW,338,0.0,0.0,86,0.00,CLR,,0.00,WeatherDisplay:10.37,2013-01-18 06:53:00,
2013-01-18 01:58:00,16.5,13.0,30.18,NNW,337,0.0,0.0,86,0.00,CLR,,0.00,WeatherDisplay:10.37,2013-01-18 06:58:00,
2013-01-18 02:03:00,16.6,13.1,30.18,NNW,338,0.0,0.0,86,0.00,CLR,,0.00,WeatherDisplay:10.37,2013-01-18 07:03:00,
2013-01-18 02:08:00,16.7,13.2,30.19,NNW,338,0.0,0.0,86,0.00,CLR,,0.00,WeatherDisplay:10.37,2013-01-18 07:08:00,
2013-01-18 02:13:00,16.7,13.2,30.19,NNW,337,0.0,0.0,86,0.00,CLR,,0.00,WeatherDisplay:10.37,2013-01-18 07:13:00,
2013-01-18 02:18:00,16.6,13.1,30.19,NNW,327,1.8,3.5,86,0.00,CLR,,0.00,WeatherDisplay:10.37,2013-01-18 07:18:00,
2013-01-18 02:23:00,16.4,12.9,30.19,NNW,340,0.3,1.0,86,0.00,CLR,,0.00,WeatherDisplay:10.37,2013-01-18 07:23:00,
2013-01-18 02:28:00,16.3,13.1,30.20,NNW,331,0.0,0.0,87,0.00,CLR,,0.00,WeatherDisplay:10.37,2013-01-18 07:28:00,
2013-01-18 02:33:00,16.3,13.1,30.21,North,11,0.2,1.1,87,0.00,CLR,,0.00,WeatherDisplay:10.37,2013-01-18 07:33:00,
2013-01-18 02:38:00,16.3,13.4,30.21,North,9,0.0,0.0,88,0.00,CLR,,0.00,WeatherDisplay:10.37,2013-01-18 07:38:00,
2013-01-18 02:43:00,16.3,13.4,30.21,NNW,344,0.0,0.0,88,0.00,CLR,,0.00,WeatherDisplay:10.37,2013-01-18 07:43:00,
2013-01-18 02:48:00,16.3,13.4,30.21,NNW,344,0.0,0.0,88,0.00,CLR,,0.00,WeatherDisplay:10.37,2013-01-18 07:48:00,
2013-01-18 02:53:00,16.3,13.4,30.22,NNW,344,0.0,0.0,88,0.00,CLR,,0.00,WeatherDisplay:10.37,2013-01-18 07:53:00,
2013-01-18 02:58:00,16.3,13.4,30.22,NNW,344,0.0,0.0,88,0.00,CLR,,0.00,WeatherDisplay:10.37,2013-01-18 07:58:00,
2013-01-18 03:03:00,16.4,13.7,30.22,NNW,344,0.0,0.0,89,0.00,CLR,,0.00,WeatherDisplay:10.37,2013-01-18 08:03:00,
2013-01-18 03:08:00,16.5,13.8,30.23,NNW,344,0.0,0.0,89,0.00,CLR,,0.00,WeatherDisplay:10.37,2013-01-18 08:08:00,
2013-01-18 03:13:00,16.6,13.9,30.23,NNW,344,0.0,0.0,89,0.00,CLR,,0.00,WeatherDisplay:10.37,2013-01-18 08:13:00,
2013-01-18 03:18:00,16.7,13.8,30.23,NNW,344,0.0,0.0,88,0.00,CLR,,0.00,WeatherDisplay:10.37,2013-01-18 08:18:00,
2013-01-18 03:23:00,16.4,13.5,30.23,NNW,344,0.0,0.0,88,0.00,CLR,,0.00,WeatherDisplay:10.37,2013-01-18 08:23:00,
2013-01-18 03:28:00,16.4,13.5,30.23,NNW,344,0.0,0.0,88,0.00,CLR,,0.00,WeatherDisplay:10.37,2013-01-18 08:28:00,
2013-01-18 03:33:00,16.3,13.4,30.23,NNW,342,0.0,0.0,88,0.00,CLR,,0.00,WeatherDisplay:10.37,2013-01-18 08:33:00,
2013-01-18 03:38:00,16.2,13.3,30.24,NNW,342,0.0,0.0,88,0.00,CLR,,0.00,WeatherDisplay:10.37,2013-01-18 08:38:00,
2013-01-18 03:43:00,16.2,13.3,30.23,NNW,342,0.0,0.0,88,0.00,CLR,,0.00,WeatherDisplay:10.37,2013-01-18 08:43:00,
2013-01-18 03:48:00,16.1,13.2,30.23,NNW,342,0.0,0.0,88,0.00,CLR,,0.00,WeatherDisplay:10.37,2013-01-18 08:48:00,
2013-01-18 03:53:00,16.2,13.3,30.24,NNW,342,0.0,0.0,88,0.00,CLR,,0.00,WeatherDisplay:10.37,2013-01-18 08:53:00,
2013-01-18 03:58:00,16.2,13.3,30.24,NNW,342,0.0,0.0,88,0.00,CLR,,0.00,WeatherDisplay:10.37,2013-01-18 08:58:00,
2013-01-18 04:03:00,16.3,13.4,30.23,NNW,342,0.0,0.0,88,0.00,CLR,,0.00,WeatherDisplay:10.37,2013-01-18 09:03:00,
2013-01-18 04:08:00,16.4,13.5,30.23,NNW,342,0.0,0.0,88,0.00,CLR,,0.00,WeatherDisplay:10.37,2013-01-18 09:08:00,
2013-01-18 04:13:00,16.6,13.7,30.24,NNW,342,0.0,0.0,88,0.00,CLR,,0.00,WeatherDisplay:10.37,2013-01-18 09:13:00,
2013-01-18 04:18:00,16.6,13.7,30.24,NNW,342,0.0,0.0,88,0.00,CLR,,0.00,WeatherDisplay:10.37,2013-01-18 09:18:00,
2013-01-18 04:23:00,16.6,13.7,30.24,NNW,342,0.0,0.0,88,0.00,CLR,,0.00,WeatherDisplay:10.37,2013-01-18 09:23:00,
2013-01-18 04:28:00,16.6,13.7,30.25,NNW,342,0.0,0.0,88,0.00,CLR,,0.00,WeatherDisplay:10.37,2013-01-18 09:28:00,
2013-01-18 04:33:00,16.6,13.7,30.25,NNW,344,0.0,0.0,88,0.00,CLR,,0.00,WeatherDisplay:10.37,2013-01-18 09:33:00,
2013-01-18 04:38:00,16.6,13.7,30.25,NNW,344,0.0,0.0,88,0.00,CLR,,0.00,WeatherDisplay:10.37,2013-01-18 09:38:00,
2013-01-18 04:43:00,16.5,13.6,30.25,NNW,344,0.0,0.0,88,0.00,CLR,,0.00,WeatherDisplay:10.37,2013-01-18 09:43:00,
2013-01-18 04:48:00,16.4,13.5,30.26,NNW,344,0.0,0.0,88,0.00,CLR,,0.00,WeatherDisplay:10.37,2013-01-18 09:48:00,
2013-01-18 04:53:00,16.4,13.5,30.26,NNW,344,0.0,0.0,88,0.00,CLR,,0.00,WeatherDisplay:10.37,2013-01-18 09:53:00,
2013-01-18 04:58:00,16.1,12.9,30.27,NNW,344,0.0,0.0,87,0.00,CLR,,0.00,WeatherDisplay:10.37,2013-01-18 09:58:00,
2013-01-18 05:03:00,15.7,12.5,30.27,NNW,344,0.0,0.0,87,0.00,CLR,,0.00,WeatherDisplay:10.37,2013-01-18 10:03:00,
2013-01-18 05:08:00,15.4,12.2,30.27,NNW,344,0.0,0.0,87,0.00,CLR,,0.00,WeatherDisplay:10.37,2013-01-18 10:08:00,
2013-01-18 05:13:00,15.1,11.9,30.27,NNW,344,0.0,0.0,87,0.00,CLR,,0.00,WeatherDisplay:10.37,2013-01-18 10:13:00,
2013-01-18 05:18:00,14.9,11.7,30.27,NNW,344,0.0,0.0,87,0.00,CLR,,0.00,WeatherDisplay:10.37,2013-01-18 10:18:00,
2013-01-18 05:23:00,14.5,11.3,30.27,NNW,344,0.0,0.0,87,0.00,CLR,,0.00,WeatherDisplay:10.37,2013-01-18 10:23:00,
2013-01-18 05:28:00,14.3,11.1,30.28,NW,323,0.0,0.0,87,0.00,CLR,,0.00,WeatherDisplay:10.37,2013-01-18 10:28:00,
2013-01-18 05:33:00,13.9,10.7,30.28,SW,221,0.1,2.3,87,0.00,CLR,,0.00,WeatherDisplay:10.37,2013-01-18 10:33:00,
2013-01-18 05:38:00,13.8,10.9,30.29,SW,222,0.0,0.0,88,0.00,CLR,,0.00,WeatherDisplay:10.37,2013-01-18 10:38:00,
2013-01-18 05:43:00,13.7,10.8,30.29,SW,222,0.0,0.0,88,0.00,CLR,,0.00,WeatherDisplay:10.37,2013-01-18 10:43:00,
2013-01-18 05:48:00,13.6,10.7,30.29,SW,223,0.0,0.0,88,0.00,CLR,,0.00,WeatherDisplay:10.37,2013-01-18 10:48:00,
2013-01-18 05:53:00,13.4,10.5,30.30,SW,223,0.0,0.0,88,0.00,CLR,,0.00,WeatherDisplay:10.37,2013-01-18 10:53:00,
2013-01-18 05:58:00,13.1,10.2,30.30,SW,222,0.0,0.0,88,0.00,CLR,,0.00,WeatherDisplay:10.37,2013-01-18 10:58:00,
2013-01-18 06:03:00,13.0,10.1,30.31,SW,222,0.0,0.0,88,0.00,CLR,,0.00,WeatherDisplay:10.37,2013-01-18 11:03:00,
2013-01-18 06:08:00,12.8,9.9,30.31,SW,223,0.0,0.0,88,0.00,CLR,,0.00,WeatherDisplay:10.37,2013-01-18 11:08:00,
2013-01-18 06:13:00,12.7,9.8,30.31,SW,222,0.0,0.0,88,0.00,CLR,,0.00,WeatherDisplay:10.37,2013-01-18 11:13:00,
2013-01-18 06:18:00,12.7,9.8,30.31,SW,222,0.0,0.0,88,0.00,CLR,,0.00,WeatherDisplay:10.37,2013-01-18 11:18:00,
2013-01-18 06:23:00,12.6,9.7,30.31,SW,223,0.0,0.0,88,0.00,CLR,,0.00,WeatherDisplay:10.37,2013-01-18 11:23:00,
2013-01-18 06:28:00,12.6,9.7,30.31,SW,223,0.0,0.0,88,0.00,CLR,,0.00,WeatherDisplay:10.37,2013-01-18 11:28:00,
2013-01-18 06:33:00,12.4,9.5,30.31,SW,223,0.0,0.0,88,0.00,CLR,,0.00,WeatherDisplay:10.37,2013-01-18 11:33:00,
2013-01-18 06:38:00,12.1,9.0,30.31,SW,222,0.0,0.0,87,0.00,CLR,,0.00,WeatherDisplay:10.37,2013-01-18 11:38:00,
2013-01-18 06:43:00,12.0,9.1,30.32,SW,222,0.0,0.0,88,0.00,CLR,,0.00,WeatherDisplay:10.37,2013-01-18 11:43:00,
2013-01-18 06:48:00,11.8,8.9,30.32,SW,222,0.0,0.0,88,0.00,CLR,,0.00,WeatherDisplay:10.37,2013-01-18 11:48:00,
2013-01-18 06:53:00,11.8,8.9,30.32,SW,223,0.0,0.0,88,0.00,CLR,,0.00,WeatherDisplay:10.37,2013-01-18 11:53:00,
2013-01-18 06:58:00,11.6,8.5,30.33,SW,222,0.0,0.0,87,0.00,CLR,,0.00,WeatherDisplay:10.37,2013-01-18 11:58:00,
2013-01-18 07:03:00,11.5,8.4,30.33,SW,222,0.1,2.0,87,0.00,CLR,,0.00,WeatherDisplay:10.37,2013-01-18 12:03:00,
2013-01-18 07:08:00,11.7,8.8,30.33,SSW,207,0.2,1.1,88,0.00,CLR,,0.00,WeatherDisplay:10.37,2013-01-18 12:08:00,
2013-01-18 07:13:00,11.9,9.3,30.33,SSW,196,0.7,2.3,89,0.00,CLR,,0.00,WeatherDisplay:10.37,2013-01-18 12:13:00,
2013-01-18 07:18:00,12.1,9.5,30.33,South,183,0.4,2.3,89,0.00,CLR,,0.00,WeatherDisplay:10.37,2013-01-18 12:18:00,
2013-01-18 07:23:00,12.3,9.7,30.33,SSW,195,0.2,1.1,89,0.00,CLR,,0.00,WeatherDisplay:10.37,2013-01-18 12:23:00,
2013-01-18 07:28:00,12.5,9.9,30.33,South,190,0.3,2.3,89,0.00,CLR,,0.00,WeatherDisplay:10.37,2013-01-18 12:28:00,
2013-01-18 07:33:00,12.6,10.0,30.33,South,191,1.4,2.3,89,0.00,CLR,,0.00,WeatherDisplay:10.37,2013-01-18 12:33:00,
2013-01-18 07:38:00,12.7,10.1,30.34,SSW,200,0.3,2.3,89,0.00,CLR,,0.00,WeatherDisplay:10.37,2013-01-18 12:38:00,
2013-01-18 07:43:00,12.8,10.2,30.34,SSW,197,0.1,2.3,89,0.00,CLR,,0.00,WeatherDisplay:10.37,2013-01-18 12:43:00,
2013-01-18 07:48:00,12.9,10.3,30.34,South,187,0.5,2.3,89,0.00,CLR,,0.00,WeatherDisplay:10.37,2013-01-18 12:48:00,
2013-01-18 07:53:00,12.9,10.3,30.34,SSW,202,0.7,2.3,89,0.00,CLR,,0.00,WeatherDisplay:10.37,2013-01-18 12:53:00,
2013-01-18 07:58:00,13.0,10.4,30.34,SSW,199,0.6,3.5,89,0.00,CLR,,0.00,WeatherDisplay:10.37,2013-01-18 12:58:00,
2013-01-18 08:03:00,13.1,10.5,30.34,SSW,196,0.9,3.5,89,0.00,CLR,,0.00,WeatherDisplay:10.37,2013-01-18 13:03:00,
2013-01-18 08:08:00,13.2,10.6,30.34,SW,219,1.3,2.3,89,0.00,CLR,,0.00,WeatherDisplay:10.37,2013-01-18 13:08:00,
2013-01-18 08:13:00,13.5,10.9,30.35,SSW,199,3.8,8.1,89,0.00,CLR,,0.00,WeatherDisplay:10.37,2013-01-18 13:13:00,
2013-01-18 08:18:00,13.7,10.8,30.35,SSW,206,1.6,5.8,88,0.00,CLR,,0.00,WeatherDisplay:10.37,2013-01-18 13:18:00,
2013-01-18 08:23:00,14.0,11.1,30.35,SSW,206,0.1,3.5,88,0.00,CLR,,0.00,WeatherDisplay:10.37,2013-01-18 13:23:00,
2013-01-18 08:28:00,14.3,11.4,30.35,West,267,1.2,3.5,88,0.00,CLR,,0.00,WeatherDisplay:10.37,2013-01-18 13:28:00,
2013-01-18 08:33:00,14.6,11.7,30.35,South,191,1.7,3.5,88,0.00,CLR,,0.00,WeatherDisplay:10.37,2013-01-18 13:33:00,
2013-01-18 08:38:00,15.0,11.8,30.35,SSW,198,3.2,3.5,87,0.00,CLR,,0.00,WeatherDisplay:10.37,2013-01-18 13:38:00,
2013-01-18 08:43:00,15.3,12.1,30.36,WSW,246,4.3,8.1,87,0.00,CLR,,0.00,WeatherDisplay:10.37,2013-01-18 13:43:00,
2013-01-18 08:48:00,15.5,12.1,30.36,WSW,244,3.0,4.6,86,0.00,CLR,,0.00,WeatherDisplay:10.37,2013-01-18 13:48:00,
2013-01-18 08:53:00,15.7,12.3,30.37,SW,226,4.1,6.9,86,0.00,CLR,,0.00,WeatherDisplay:10.37,2013-01-18 13:53:00,
2013-01-18 08:58:00,15.9,12.2,30.37,SW,225,2.7,5.0,85,0.00,CLR,,0.00,WeatherDisplay:10.37,2013-01-18 13:58:00,
2013-01-18 09:03:00,15.9,12.2,30.37,SW,216,5.3,5.3,85,0.00,CLR,,0.00,WeatherDisplay:10.37,2013-01-18 14:03:00,
2013-01-18 09:08:00,16.2,12.5,30.37,SW,214,2.5,5.8,85,0.00,CLR,,0.00,WeatherDisplay:10.37,2013-01-18 14:08:00,
2013-01-18 09:13:00,16.4,12.4,30.37,WSW,245,2.0,3.5,84,0.00,CLR,,0.00,WeatherDisplay:10.37,2013-01-18 14:13:00,
2013-01-18 09:18:00,16.6,12.3,30.37,SW,226,4.1,11.5,83,0.00,CLR,,0.00,WeatherDisplay:10.37,2013-01-18 14:18:00,
2013-01-18 09:23:00,16.8,12.5,30.38,SW,228,7.0,9.0,83,0.00,CLR,,0.00,WeatherDisplay:10.37,2013-01-18 14:23:00,
2013-01-18 09:28:00,16.9,12.6,30.38,SSW,196,6.1,8.1,83,0.00,CLR,,0.00,WeatherDisplay:10.37,2013-01-18 14:28:00,
2013-01-18 09:33:00,17.0,12.5,30.38,WSW,242,2.4,3.5,82,0.00,CLR,,0.00,WeatherDisplay:10.37,2013-01-18 14:33:00,
2013-01-18 09:38:00,17.1,12.6,30.38,SW,229,4.4,10.4,82,0.00,CLR,,0.00,WeatherDisplay:10.37,2013-01-18 14:38:00,
2013-01-18 09:43:00,17.3,12.5,30.38,WSW,249,3.8,6.9,81,0.00,CLR,,0.00,WeatherDisplay:10.37,2013-01-18 14:43:00,
2013-01-18 09:48:00,17.6,12.8,30.39,SSW,209,6.1,10.0,81,0.00,CLR,,0.00,WeatherDisplay:10.37,2013-01-18 14:48:00,
2013-01-18 09:53:00,17.7,12.6,30.39,West,268,4.2,12.7,80,0.00,CLR,,0.00,WeatherDisplay:10.37,2013-01-18 14:53:00,
2013-01-18 09:58:00,18.0,12.6,30.39,WSW,254,3.9,6.9,79,0.00,CLR,,0.00,WeatherDisplay:10.37,2013-01-18 14:58:00,
2013-01-18 10:03:00,18.3,12.3,30.40,SW,232,5.2,11.0,77,0.00,CLR,,0.00,WeatherDisplay:10.37,2013-01-18 15:03:00,
2013-01-18 10:08:00,18.3,12.0,30.40,WSW,238,7.7,11.5,76,0.00,CLR,,0.00,WeatherDisplay:10.37,2013-01-18 15:08:00,
2013-01-18 10:13:00,18.3,12.0,30.40,West,259,0.5,3.5,76,0.00,CLR,,0.00,WeatherDisplay:10.37,2013-01-18 15:13:00,
2013-01-18 10:18:00,18.7,12.4,30.40,SW,221,3.9,8.0,76,0.00,CLR,,0.00,WeatherDisplay:10.37,2013-01-18 15:18:00,
2013-01-18 10:23:00,19.1,12.5,30.40,SSW,209,3.1,4.6,75,0.00,CLR,,0.00,WeatherDisplay:10.37,2013-01-18 15:23:00,
2013-01-18 10:28:00,19.1,11.6,30.40,WSW,248,8.8,10.0,72,0.00,CLR,,0.00,WeatherDisplay:10.37,2013-01-18 15:28:00,
2013-01-18 10:33:00,19.3,11.4,30.39,SE,145,1.7,8.1,71,0.00,CLR,,0.00,WeatherDisplay:10.37,2013-01-18 15:33:00,
2013-01-18 10:38:00,19.7,11.8,30.39,WSW,240,3.6,5.0,71,0.00,CLR,,0.00,WeatherDisplay:10.37,2013-01-18 15:38:00,
2013-01-18 10:43:00,19.8,11.6,30.39,WNW,292,2.3,8.1,70,0.00,CLR,,0.00,WeatherDisplay:10.37,2013-01-18 15:43:00,
2013-01-18 10:48:00,20.0,11.1,30.39,SW,217,5.6,10.4,68,0.00,CLR,,0.00,WeatherDisplay:10.37,2013-01-18 15:48:00,
2013-01-18 10:53:00,20.0,10.5,30.39,SW,223,9.2,11.5,66,0.00,CLR,,0.00,WeatherDisplay:10.37,2013-01-18 15:53:00,
2013-01-18 10:58:00,20.2,10.6,30.40,SW,228,6.1,6.9,66,0.00,CLR,,0.00,WeatherDisplay:10.37,2013-01-18 15:58:00,
2013-01-18 11:03:00,20.3,10.7,30.39,SW,220,0.9,8.1,66,0.00,CLR,,0.00,WeatherDisplay:10.37,2013-01-18 16:03:00,
2013-01-18 11:08:00,20.3,10.1,30.39,SW,219,8.8,9.2,64,0.00,CLR,,0.00,WeatherDisplay:10.37,2013-01-18 16:08:00,
2013-01-18 11:13:00,20.3,10.1,30.39,SSW,196,3.8,8.1,64,0.00,CLR,,0.00,WeatherDisplay:10.37,2013-01-18 16:13:00,
2013-01-18 11:18:00,20.5,10.6,30.38,SW,223,5.5,8.1,65,0.00,CLR,,0.00,WeatherDisplay:10.37,2013-01-18 16:18:00,
2013-01-18 11:23:00,20.8,10.9,30.38,WSW,248,2.4,5.0,65,0.00,CLR,,0.00,WeatherDisplay:10.37,2013-01-18 16:23:00,
2013-01-18 11:28:00,20.8,10.5,30.38,WSW,242,2.0,6.9,64,0.00,CLR,,0.00,WeatherDisplay:10.37,2013-01-18 16:28:00,
2013-01-18 11:33:00,21.0,10.4,30.37,WSW,244,5.7,8.1,63,0.00,CLR,,0.00,WeatherDisplay:10.37,2013-01-18 16:33:00,
2013-01-18 11:38:00,20.8,10.2,30.37,West,275,1.2,3.5,63,0.00,CLR,,0.00,WeatherDisplay:10.37,2013-01-18 16:38:00,
2013-01-18 11:43:00,20.9,9.5,30.37,SW,234,2.8,6.9,61,0.00,CLR,,0.00,WeatherDisplay:10.37,2013-01-18 16:43:00,
2013-01-18 11:48:00,21.1,10.1,30.36,WSW,245,5.0,5.0,62,0.00,CLR,,0.00,WeatherDisplay:10.37,2013-01-18 16:48:00,
2013-01-18 11:53:00,20.9,9.2,30.36,SSW,195,5.4,13.8,60,0.00,CLR,,0.00,WeatherDisplay:10.37,2013-01-18 16:53:00,
2013-01-18 11:58:00,20.9,9.2,30.36,West,272,5.0,9.2,60,0.00,CLR,,0.00,WeatherDisplay:10.37,2013-01-18 16:58:00,
2013-01-18 12:03:00,21.1,9.0,30.36,WSW,248,7.2,11.5,59,0.00,CLR,,0.00,WeatherDisplay:10.37,2013-01-18 17:03:00,
2013-01-18 12:08:00,21.2,9.5,30.36,SW,227,6.1,10.0,60,0.00,CLR,,0.00,WeatherDisplay:10.37,2013-01-18 17:08:00,
2013-01-18 12:13:00,21.3,9.9,30.36,West,261,1.7,4.0,61,0.00,CLR,,0.00,WeatherDisplay:10.37,2013-01-18 17:13:00,
2013-01-18 12:18:00,21.6,9.5,30.36,SSW,207,4.4,8.1,59,0.00,CLR,,0.00,WeatherDisplay:10.37,2013-01-18 17:18:00,
2013-01-18 12:23:00,21.6,9.5,30.36,SW,222,3.4,6.9,59,0.00,CLR,,0.00,WeatherDisplay:10.37,2013-01-18 17:23:00,
2013-01-18 12:28:00,21.7,9.2,30.36,SW,224,1.1,3.5,58,0.00,CLR,,0.00,WeatherDisplay:10.37,2013-01-18 17:28:00,
2013-01-18 12:33:00,21.7,9.2,30.36,SW,224,1.1,3.5,58,0.00,CLR,,0.00,WeatherDisplay:10.37,2013-01-18 17:33:00,
2013-01-18 12:41:00,21.7,9.2,30.36,SW,224,1.1,3.5,58,0.00,CLR,,0.00,WeatherDisplay:10.37,2013-01-18 17:41:00,
2013-01-18 13:07:00,21.7,9.2,30.36,SW,224,1.1,3.5,58,0.00,CLR,,0.00,WeatherDisplay:10.37,2013-01-18 18:07:00,
2013-01-18 13:23:00,21.7,9.2,30.36,SW,224,1.1,3.5,58,0.00,CLR,,0.00,WeatherDisplay:10.37,2013-01-18 18:23:00,
2013-01-18 13:28:00,21.7,9.2,30.36,SW,224,1.1,3.5,58,0.00,CLR,,0.00,WeatherDisplay:10.37,2013-01-18 18:28:00,
2013-01-18 13:33:00,21.7,9.2,30.36,SW,224,1.1,3.5,58,0.00,CLR,,0.00,WeatherDisplay:10.37,2013-01-18 18:33:00,
2013-01-18 13:49:00,21.7,9.2,30.36,SW,224,1.1,3.5,58,0.00,CLR,,0.00,WeatherDisplay:10.37,2013-01-18 18:49:00,
2013-01-18 13:55:00,21.7,9.2,30.36,SW,224,1.1,3.5,58,0.00,CLR,,0.00,WeatherDisplay:10.37,2013-01-18 18:55:00,
2013-01-18 14:06:00,21.7,9.2,30.36,SW,224,1.1,3.5,58,0.00,CLR,,0.00,WeatherDisplay:10.37,2013-01-18 19:06:00,
2013-01-18 14:43:00,21.7,9.2,30.36,SW,224,1.1,3.5,58,0.00,CLR,,0.00,WeatherDisplay:10.37,2013-01-18 19:43:00,
2013-01-18 15:08:00,21.7,9.2,30.36,SW,224,1.1,3.5,58,0.00,CLR,,0.00,WeatherDisplay:10.37,2013-01-18 20:08:00,
2013-01-18 15:37:00,21.7,9.2,30.36,SW,224,1.1,3.5,58,0.00,CLR,,0.00,WeatherDisplay:10.37,2013-01-18 20:37:00,
2013-01-18 16:28:00,21.7,9.2,30.36,SW,224,1.1,3.5,58,0.00,CLR,,0.00,WeatherDisplay:10.37,2013-01-18 21:28:00,
2013-01-18 16:45:00,21.7,9.2,30.36,SW,224,1.1,3.5,58,0.00,CLR,,0.00,WeatherDisplay:10.37,2013-01-18 21:45:00,
2013-01-18 17:12:00,21.7,9.2,30.36,SW,224,1.1,3.5,58,0.00,CLR,,0.00,WeatherDisplay:10.37,2013-01-18 22:12:00,
2013-01-18 17:17:00,21.7,9.2,30.36,SW,224,1.1,3.5,58,0.00,CLR,,0.00,WeatherDisplay:10.37,2013-01-18 22:17:00,
2013-01-18 17:22:00,24.0,12.5,30.25,SSW,205,0.1,1.1,61,0.00,,,0.00,WeatherDisplay:10.37,2013-01-18 22:22:00,
2013-01-18 17:27:00,23.9,12.8,30.25,South,183,1.4,3.5,62,0.00,,,0.00,WeatherDisplay:10.37,2013-01-18 22:27:00,
2013-01-18 17:32:00,23.9,12.4,30.25,SSW,203,0.7,3.5,61,0.00,,,0.00,WeatherDisplay:10.37,2013-01-18 22:32:00,
2013-01-18 17:37:00,23.9,12.8,30.25,SSE,149,1.7,3.5,62,0.00,,,0.00,WeatherDisplay:10.37,2013-01-18 22:37:00,
2013-01-18 17:42:00,23.9,12.4,30.25,SSW,205,0.0,0.0,61,0.00,,,0.00,WeatherDisplay:10.37,2013-01-18 22:42:00,
2013-01-18 17:47:00,23.9,12.4,30.25,South,182,0.1,1.1,61,0.00,,,0.00,WeatherDisplay:10.37,2013-01-18 22:47:00,
2013-01-18 17:52:00,23.9,13.1,30.24,SSE,151,1.3,3.5,63,0.00,,,0.00,WeatherDisplay:10.37,2013-01-18 22:52:00,
2013-01-18 17:57:00,23.9,12.8,30.24,South,173,0.0,0.0,62,0.00,,,0.00,WeatherDisplay:10.37,2013-01-18 22:57:00,
2013-01-18 18:02:00,24.1,12.9,30.24,SSE,167,1.3,2.3,62,0.00,,,0.00,WeatherDisplay:10.37,2013-01-18 23:02:00,
2013-01-18 18:07:00,24.2,13.0,30.24,SSE,159,0.0,0.0,62,0.00,,,0.00,WeatherDisplay:10.37,2013-01-18 23:07:00,
2013-01-18 18:12:00,24.2,13.0,30.23,SSE,159,0.0,0.0,62,0.00,,,0.00,WeatherDisplay:10.37,2013-01-18 23:12:00,
2013-01-18 18:17:00,24.3,12.8,30.23,SSE,159,0.0,1.1,61,0.00,,,0.00,WeatherDisplay:10.37,2013-01-18 23:17:00,
2013-01-18 18:22:00,24.4,13.2,30.23,SSE,162,0.0,0.0,62,0.00,,,0.00,WeatherDisplay:10.37,2013-01-18 23:22:00,
2013-01-18 18:27:00,24.5,13.0,30.23,SE,139,2.2,3.5,61,0.00,,,0.00,WeatherDisplay:10.37,2013-01-18 23:27:00,
2013-01-18 18:32:00,24.5,12.6,30.22,SE,139,0.0,0.0,60,0.00,,,0.00,WeatherDisplay:10.37,2013-01-18 23:32:00,
2013-01-18 18:37:00,24.6,13.4,30.22,SE,138,0.0,0.0,62,0.00,,,0.00,WeatherDisplay:10.37,2013-01-18 23:37:00,
2013-01-18 18:42:00,24.7,13.1,30.22,SE,139,0.0,0.0,61,0.00,,,0.00,WeatherDisplay:10.37,2013-01-18 23:42:00,
2013-01-18 18:47:00,24.8,13.2,30.23,SE,139,0.0,0.0,61,0.00,,,0.00,WeatherDisplay:10.37,2013-01-18 23:47:00,
2013-01-18 18:52:00,24.9,13.0,30.22,SE,139,0.0,0.0,60,0.00,,,0.00,WeatherDisplay:10.37,2013-01-18 23:52:00,
2013-01-18 18:57:00,25.1,13.5,30.22,SE,139,0.0,0.0,61,0.00,,,0.00,WeatherDisplay:10.37,2013-01-18 23:57:00,
2013-01-18 19:02:00,25.2,13.6,30.22,SE,138,0.2,1.1,61,0.00,,,0.00,WeatherDisplay:10.37,2013-01-19 00:02:00,
2013-01-18 19:07:00,25.3,13.7,30.21,SE,139,0.0,0.0,61,0.00,,,0.00,WeatherDisplay:10.37,2013-01-19 00:07:00,
2013-01-18 19:12:00,25.3,14.1,30.21,SE,138,0.0,0.0,62,0.00,,,0.00,WeatherDisplay:10.37,2013-01-19 00:12:00,
2013-01-18 19:17:00,25.3,14.1,30.21,SE,138,0.0,0.0,62,0.00,,,0.00,WeatherDisplay:10.37,2013-01-19 00:17:00,
2013-01-18 19:22:00,25.3,13.7,30.20,SE,139,0.0,0.0,61,0.00,,,0.00,WeatherDisplay:10.37,2013-01-19 00:22:00,
2013-01-18 19:27:00,25.3,14.1,30.20,SE,139,0.0,0.0,62,0.00,,,0.00,WeatherDisplay:10.37,2013-01-19 00:27:00,
2013-01-18 19:32:00,25.4,14.2,30.20,SE,139,0.0,0.0,62,0.00,,,0.00,WeatherDisplay:10.37,2013-01-19 00:32:00,
2013-01-18 19:37:00,25.5,14.3,30.20,SE,138,0.0,0.0,62,0.00,,,0.00,WeatherDisplay:10.37,2013-01-19 00:37:00,
2013-01-18 19:42:00,25.6,14.0,30.20,SE,138,0.0,0.0,61,0.00,,,0.00,WeatherDisplay:10.37,2013-01-19 00:42:00,
2013-01-18 19:47:00,25.6,14.0,30.19,East,80,0.0,0.0,61,0.00,,,0.00,WeatherDisplay:10.37,2013-01-19 00:47:00,
2013-01-18 19:52:00,25.7,14.1,30.18,ESE,121,0.0,0.0,61,0.00,,,0.00,WeatherDisplay:10.37,2013-01-19 00:52:00,
2013-01-18 19:57:00,25.7,14.1,30.18,ESE,117,0.0,0.0,61,0.00,,,0.00,WeatherDisplay:10.37,2013-01-19 00:57:00,
2013-01-18 20:02:00,25.8,14.6,30.17,ESE,117,0.0,0.0,62,0.00,,,0.00,WeatherDisplay:10.37,2013-01-19 01:02:00,
2013-01-18 20:07:00,25.9,14.3,30.17,ESE,117,0.0,0.0,61,0.00,,,0.00,WeatherDisplay:10.37,2013-01-19 01:07:00,
2013-01-18 20:12:00,25.8,13.0,30.16,SSE,153,0.2,2.3,58,0.00,,,0.00,WeatherDisplay:10.37,2013-01-19 01:12:00,
2013-01-18 20:17:00,25.8,13.0,30.16,SSE,161,0.7,2.3,58,0.00,,,0.00,WeatherDisplay:10.37,2013-01-19 01:17:00,
2013-01-18 20:22:00,25.8,12.6,30.15,SSE,150,0.9,3.5,57,0.00,,,0.00,WeatherDisplay:10.37,2013-01-19 01:22:00,
2013-01-18 20:27:00,25.8,12.6,30.14,South,173,3.3,4.6,57,0.00,,,0.00,WeatherDisplay:10.37,2013-01-19 01:27:00,
2013-01-18 20:32:00,25.9,12.7,30.14,SSE,153,1.5,3.5,57,0.00,,,0.00,WeatherDisplay:10.37,2013-01-19 01:32:00,
2013-01-18 20:37:00,26.0,12.8,30.14,SSE,152,1.9,4.6,57,0.00,,,0.00,WeatherDisplay:10.37,2013-01-19 01:37:00,
2013-01-18 20:42:00,26.0,12.8,30.13,SSE,167,1.8,3.5,57,0.00,,,0.00,WeatherDisplay:10.37,2013-01-19 01:42:00,
2013-01-18 20:47:00,26.0,12.8,30.13,SSE,148,1.7,3.5,57,0.00,,,0.00,WeatherDisplay:10.37,2013-01-19 01:47:00,
2013-01-18 20:52:00,26.1,12.5,30.12,SSE,163,1.3,2.3,56,0.00,,,0.00,WeatherDisplay:10.37,2013-01-19 01:52:00,
2013-01-18 20:57:00,26.2,12.6,30.12,South,182,1.6,4.6,56,0.00,,,0.00,WeatherDisplay:10.37,2013-01-19 01:57:00,
2013-01-18 21:02:00,26.1,12.5,30.11,SE,130,3.0,6.9,56,0.00,,,0.00,WeatherDisplay:10.37,2013-01-19 02:02:00,
2013-01-18 21:07:00,26.2,13.0,30.11,SE,138,0.8,3.5,57,0.00,,,0.00,WeatherDisplay:10.37,2013-01-19 02:07:00,
2013-01-18 21:12:00,26.2,13.4,30.10,South,187,2.1,4.6,58,0.00,,,0.00,WeatherDisplay:10.37,2013-01-19 02:12:00,
2013-01-18 21:17:00,26.2,12.6,30.10,SSW,203,1.0,2.3,56,0.00,,,0.00,WeatherDisplay:10.37,2013-01-19 02:17:00,
2013-01-18 21:22:00,26.2,13.0,30.09,South,175,2.6,6.9,57,0.00,,,0.00,WeatherDisplay:10.37,2013-01-19 02:22:00,
2013-01-18 21:27:00,26.1,12.5,30.09,SW,216,0.8,3.5,56,0.00,,,0.00,WeatherDisplay:10.37,2013-01-19 02:27:00,
2013-01-18 21:32:00,26.1,12.9,30.09,SSE,155,0.0,0.0,57,0.00,,,0.00,WeatherDisplay:10.37,2013-01-19 02:32:00,
2013-01-18 21:37:00,26.1,13.3,30.08,SSE,148,1.9,3.5,58,0.00,,,0.00,WeatherDisplay:10.37,2013-01-19 02:37:00,
2013-01-18 21:42:00,26.1,12.9,30.08,SE,146,1.6,5.8,57,0.00,,,0.00,WeatherDisplay:10.37,2013-01-19 02:42:00,
2013-01-18 21:47:00,26.2,13.0,30.07,South,171,2.0,3.5,57,0.00,,,0.00,WeatherDisplay:10.37,2013-01-19 02:47:00,
2013-01-18 21:52:00,26.3,13.1,30.07,South,172,1.7,6.0,57,0.00,,,0.00,WeatherDisplay:10.37,2013-01-19 02:52:00,
2013-01-18 21:57:00,26.5,13.7,30.06,South,177,2.1,4.6,58,0.00,,,0.00,WeatherDisplay:10.37,2013-01-19 02:57:00,
2013-01-18 22:02:00,26.6,13.8,30.06,South,172,3.1,4.6,58,0.00,,,0.00,WeatherDisplay:10.37,2013-01-19 03:02:00,
2013-01-18 22:07:00,26.7,13.9,30.05,SE,140,1.0,5.0,58,0.00,,,0.00,WeatherDisplay:10.37,2013-01-19 03:07:00,
2013-01-18 22:12:00,26.8,14.0,30.05,South,186,1.4,3.5,58,0.00,,,0.00,WeatherDisplay:10.37,2013-01-19 03:12:00,
2013-01-18 22:18:00,26.9,14.1,30.04,South,179,0.7,3.5,58,0.00,,,0.00,WeatherDisplay:10.37,2013-01-19 03:18:00,
2013-01-18 22:23:00,27.1,14.3,30.04,South,176,2.0,6.0,58,0.00,,,0.00,WeatherDisplay:10.37,2013-01-19 03:23:00,
2013-01-18 22:28:00,27.3,14.5,30.03,South,178,0.2,1.1,58,0.00,,,0.00,WeatherDisplay:10.37,2013-01-19 03:28:00,
2013-01-18 22:33:00,27.5,14.6,30.03,SSE,162,3.4,6.9,58,0.00,,,0.00,WeatherDisplay:10.37,2013-01-19 03:33:00,
2013-01-18 22:38:00,27.8,14.9,30.03,SSE,157,0.0,1.1,58,0.00,,,0.00,WeatherDisplay:10.37,2013-01-19 03:38:00,
2013-01-18 22:43:00,28.1,15.2,30.03,SW,223,0.0,3.5,58,0.00,,,0.00,WeatherDisplay:10.37,2013-01-19 03:43:00,
2013-01-18 22:48:00,28.4,15.1,30.04,SSW,198,0.7,3.5,57,0.00,,,0.00,WeatherDisplay:10.37,2013-01-19 03:48:00,
2013-01-18 22:53:00,28.8,15.5,30.03,South,180,1.8,4.6,57,0.00,,,0.00,WeatherDisplay:10.37,2013-01-19 03:53:00,
2013-01-18 22:58:00,29.3,15.9,30.03,WSW,240,3.3,6.9,57,0.00,,,0.00,WeatherDisplay:10.37,2013-01-19 03:58:00,
2013-01-18 23:03:00,29.9,16.5,30.04,WSW,237,5.0,6.9,57,0.00,,,0.00,WeatherDisplay:10.37,2013-01-19 04:03:00,
2013-01-18 23:08:00,30.4,16.1,30.05,SSW,207,2.1,3.5,55,0.00,,,0.00,WeatherDisplay:10.37,2013-01-19 04:08:00,
2013-01-18 23:13:00,30.7,16.8,30.04,SW,230,1.5,4.0,56,0.00,,,0.00,WeatherDisplay:10.37,2013-01-19 04:13:00,
2013-01-18 23:18:00,31.0,16.7,30.03,SE,141,6.9,6.9,55,0.00,,,0.00,WeatherDisplay:10.37,2013-01-19 04:18:00,
2013-01-18 23:23:00,31.5,17.2,30.04,SSW,196,2.4,10.4,55,0.00,,,0.00,WeatherDisplay:10.37,2013-01-19 04:23:00,
2013-01-18 23:28:00,31.6,16.8,30.03,South,179,4.6,4.6,54,0.00,,,0.00,WeatherDisplay:10.37,2013-01-19 04:28:00,
2013-01-18 23:33:00,31.7,17.4,30.02,South,173,2.5,5.0,55,0.00,,,0.00,WeatherDisplay:10.37,2013-01-19 04:33:00,
2013-01-18 23:38:00,31.9,17.1,30.02,SW,215,5.3,8.1,54,0.00,,,0.00,WeatherDisplay:10.37,2013-01-19 04:38:00,
2013-01-18 23:43:00,32.0,17.2,30.01,South,175,5.0,9.2,54,0.00,,,0.00,WeatherDisplay:10.37,2013-01-19 04:43:00,
2013-01-18 23:48:00,32.1,17.3,30.01,South,182,6.6,13.8,54,0.00,,,0.00,WeatherDisplay:10.37,2013-01-19 04:48:00,
2013-01-18 23:53:00,32.2,17.0,30.00,SSW,196,4.8,8.1,53,0.00,,,0.00,WeatherDisplay:10.37,2013-01-19 04:53:00,
2013-01-18 23:58:00,32.4,17.2,30.00,SSW,207,3.9,9.2,53,0.00,,,0.00,WeatherDisplay:10.37,2013-01-19 04:58:00,